KLM540 EHAM-EDDN
Flight info
| Callsign | KLM540 |
|---|---|
| Flight time | 1h 0m |
| Altitude | 35000 |
| Route | EDUPO Z739 MISGO DCT TIVUN DCT TESGA Z719 ETOLU Z723 RITUP/N0347F230 Z723 KOMIB T193 ERTES T194 DODAS DODAS1V |
| Aircraft | A21N/M-SDE2E3FGHIRWXY/LB1 |
Departure
| Time | 2026-04-27 13:15 |
|---|---|
| Airport | Amsterdam Airport Schiphol (EHAM) |
Arrival
| Time | 2026-04-27 14:15 |
|---|---|
| Airport | Nuremberg Airport (EDDN) |
| Time | Latitude | Longitude | Altitude | Speed | Heading |
|---|---|---|---|---|---|
| 2026-04-27 12:49 | 52.31000 | 4.77352 | 2 ft | 0 kts | 183° |
| 2026-04-27 12:52 | 52.31017 | 4.77354 | 2 ft | 4 kts | 183° |
| 2026-04-27 12:52 | 52.31042 | 4.77356 | 2 ft | 4 kts | 183° |
| 2026-04-27 12:53 | 52.31071 | 4.77343 | 2 ft | 3 kts | 96° |
| 2026-04-27 12:54 | 52.31071 | 4.77335 | 2 ft | 2 kts | 93° |
| 2026-04-27 12:54 | 52.31072 | 4.77320 | 2 ft | 4 kts | 93° |
| 2026-04-27 12:55 | 52.31073 | 4.77299 | 2 ft | 1 kts | 93° |
| 2026-04-27 12:58 | 52.31073 | 4.77300 | 2 ft | 1 kts | 93° |
| 2026-04-27 12:59 | 52.31071 | 4.77355 | 2 ft | 8 kts | 94° |
| 2026-04-27 12:59 | 52.31068 | 4.77448 | 2 ft | 8 kts | 86° |
| 2026-04-27 12:59 | 52.31102 | 4.77493 | 2 ft | 7 kts | 12° |
| 2026-04-27 12:59 | 52.31156 | 4.77497 | 2 ft | 8 kts | 1° |
| 2026-04-27 13:00 | 52.31216 | 4.77500 | 2 ft | 9 kts | 3° |
| 2026-04-27 13:00 | 52.31280 | 4.77494 | 2 ft | 11 kts | 348° |
| 2026-04-27 13:00 | 52.31338 | 4.77428 | 2 ft | 12 kts | 312° |
| 2026-04-27 13:00 | 52.31392 | 4.77327 | 2 ft | 15 kts | 310° |
| 2026-04-27 13:01 | 52.31462 | 4.77187 | 2 ft | 17 kts | 306° |
| 2026-04-27 13:01 | 52.31482 | 4.77003 | 2 ft | 17 kts | 264° |
| 2026-04-27 13:01 | 52.31474 | 4.76798 | 2 ft | 19 kts | 267° |
| 2026-04-27 13:01 | 52.31466 | 4.76579 | 2 ft | 21 kts | 268° |
| 2026-04-27 13:02 | 52.31460 | 4.76326 | 2 ft | 23 kts | 275° |
| 2026-04-27 13:02 | 52.31456 | 4.76093 | 3 ft | 18 kts | 259° |
| 2026-04-27 13:02 | 52.31438 | 4.75933 | 2 ft | 13 kts | 259° |
| 2026-04-27 13:02 | 52.31429 | 4.75854 | 3 ft | 0 kts | 259° |
| 2026-04-27 13:03 | 52.31429 | 4.75850 | 2 ft | 1 kts | 263° |
| 2026-04-27 13:03 | 52.31435 | 4.75776 | 2 ft | 20 kts | 276° |
| 2026-04-27 13:03 | 52.31430 | 4.75512 | 2 ft | 19 kts | 267° |
| 2026-04-27 13:04 | 52.31420 | 4.75279 | 2 ft | 22 kts | 266° |
| 2026-04-27 13:04 | 52.31411 | 4.75016 | 2 ft | 24 kts | 267° |
| 2026-04-27 13:04 | 52.31403 | 4.74723 | 2 ft | 27 kts | 267° |
| 2026-04-27 13:04 | 52.31399 | 4.74587 | 2 ft | 5 kts | 267° |
| 2026-04-27 13:05 | 52.31398 | 4.74553 | 2 ft | 0 kts | 266° |
| 2026-04-27 13:05 | 52.31397 | 4.74551 | 2 ft | 3 kts | 266° |
| 2026-04-27 13:05 | 52.31391 | 4.74382 | 2 ft | 12 kts | 266° |
| 2026-04-27 13:05 | 52.31438 | 4.74286 | 2 ft | 15 kts | 359° |
| 2026-04-27 13:06 | 52.31593 | 4.74301 | 2 ft | 27 kts | 3° |
| 2026-04-27 13:06 | 52.31779 | 4.74319 | 2 ft | 32 kts | 2° |
| 2026-04-27 13:06 | 52.31942 | 4.74334 | 2 ft | 19 kts | 4° |
| 2026-04-27 13:06 | 52.32021 | 4.74294 | 2 ft | 12 kts | 313° |
| 2026-04-27 13:07 | 52.32033 | 4.74161 | 2 ft | 13 kts | 273° |
| 2026-04-27 13:07 | 52.32039 | 4.73987 | 1 ft | 17 kts | 273° |
| 2026-04-27 13:07 | 52.32045 | 4.73812 | 3 ft | 14 kts | 273° |
| 2026-04-27 13:07 | 52.32049 | 4.73656 | 2 ft | 14 kts | 273° |
| 2026-04-27 13:08 | 52.32050 | 4.73643 | 2 ft | 0 kts | 273° |
| 2026-04-27 13:08 | 52.32055 | 4.73524 | 2 ft | 25 kts | 278° |
| 2026-04-27 13:08 | 52.32142 | 4.73280 | 2 ft | 27 kts | 319° |
| 2026-04-27 13:08 | 52.32291 | 4.73072 | 2 ft | 29 kts | 320° |
| 2026-04-27 13:09 | 52.32450 | 4.72849 | 2 ft | 31 kts | 320° |
| 2026-04-27 13:09 | 52.32618 | 4.72610 | 2 ft | 33 kts | 319° |
| 2026-04-27 13:09 | 52.32778 | 4.72334 | 2 ft | 34 kts | 312° |
| 2026-04-27 13:09 | 52.32903 | 4.72103 | 2 ft | 19 kts | 309° |
| 2026-04-27 13:10 | 52.33012 | 4.71905 | 2 ft | 28 kts | 310° |
| 2026-04-27 13:10 | 52.33134 | 4.71677 | 2 ft | 19 kts | 307° |
| 2026-04-27 13:10 | 52.33124 | 4.71488 | 2 ft | 21 kts | 224° |
| 2026-04-27 13:10 | 52.33030 | 4.71355 | 2 ft | 19 kts | 221° |
| 2026-04-27 13:11 | 52.32956 | 4.71248 | 2 ft | 14 kts | 221° |
| 2026-04-27 13:11 | 52.32880 | 4.71131 | 2 ft | 15 kts | 233° |
| 2026-04-27 13:11 | 52.32861 | 4.71024 | 1 ft | 0 kts | 275° |
| 2026-04-27 13:11 | 52.32861 | 4.70999 | 1 ft | 5 kts | 275° |
| 2026-04-27 13:12 | 52.32905 | 4.70897 | 1 ft | 14 kts | 350° |
| 2026-04-27 13:12 | 52.32926 | 4.70897 | 1 ft | 0 kts | 4° |
| 2026-04-27 13:14 | 52.33108 | 4.70915 | -1 ft | 66 kts | 3° |
| 2026-04-27 13:15 | 52.33480 | 4.70944 | 1 ft | 118 kts | 355° |
| 2026-04-27 13:15 | 52.34518 | 4.71040 | 184 ft | 171 kts | 5° |
| 2026-04-27 13:15 | 52.35693 | 4.71151 | 1007 ft | 175 kts | 358° |
| 2026-04-27 13:15 | 52.36885 | 4.71119 | 2107 ft | 175 kts | 0° |
| 2026-04-27 13:16 | 52.38223 | 4.71149 | 2817 ft | 208 kts | 0° |
| 2026-04-27 13:16 | 52.39744 | 4.71165 | 3620 ft | 228 kts | 359° |
| 2026-04-27 13:16 | 52.41245 | 4.71179 | 4484 ft | 241 kts | 350° |
| 2026-04-27 13:16 | 52.42988 | 4.71605 | 5547 ft | 238 kts | 9° |
| 2026-04-27 13:17 | 52.44386 | 4.72571 | 6951 ft | 198 kts | 21° |
| 2026-04-27 13:17 | 52.45469 | 4.73571 | 8140 ft | 160 kts | 8° |
| 2026-04-27 13:17 | 52.46397 | 4.74510 | 9096 ft | 160 kts | 30° |
| 2026-04-27 13:17 | 52.47218 | 4.75814 | 9798 ft | 177 kts | 47° |
| 2026-04-27 13:18 | 52.47969 | 4.77623 | 10175 ft | 206 kts | 63° |
| 2026-04-27 13:18 | 52.48351 | 4.79968 | 10706 ft | 223 kts | 79° |
| 2026-04-27 13:18 | 52.48573 | 4.82710 | 10922 ft | 263 kts | 68° |
| 2026-04-27 13:18 | 52.48924 | 4.85890 | 11142 ft | 303 kts | 69° |
| 2026-04-27 13:19 | 52.49077 | 4.89509 | 11530 ft | 332 kts | 88° |
| 2026-04-27 13:19 | 52.48632 | 4.93272 | 12548 ft | 339 kts | 103° |
| 2026-04-27 13:19 | 52.47651 | 4.96790 | 13758 ft | 342 kts | 116° |
| 2026-04-27 13:19 | 52.46228 | 4.99951 | 14702 ft | 348 kts | 128° |
| 2026-04-27 13:20 | 52.44752 | 5.02056 | 15903 ft | 327 kts | 140° |
| 2026-04-27 13:20 | 52.44139 | 5.02715 | 16421 ft | 322 kts | 144° |
| 2026-04-27 13:20 | 52.43511 | 5.03299 | 16872 ft | 318 kts | 147° |
| 2026-04-27 13:20 | 52.42557 | 5.04031 | 17432 ft | 312 kts | 153° |
| 2026-04-27 13:21 | 52.41582 | 5.04599 | 18030 ft | 304 kts | 155° |
| 2026-04-27 13:21 | 52.39641 | 5.05737 | 19026 ft | 307 kts | 151° |
| 2026-04-27 13:21 | 52.37637 | 5.07261 | 19375 ft | 330 kts | 146° |
| 2026-04-27 13:21 | 52.35557 | 5.09172 | 19575 ft | 356 kts | 144° |
| 2026-04-27 13:22 | 52.33499 | 5.11613 | 20056 ft | 374 kts | 134° |
| 2026-04-27 13:22 | 52.31588 | 5.14591 | 20782 ft | 382 kts | 131° |
| 2026-04-27 13:22 | 52.29757 | 5.17752 | 21609 ft | 387 kts | 127° |
| 2026-04-27 13:22 | 52.27943 | 5.21096 | 22118 ft | 397 kts | 129° |
| 2026-04-27 13:23 | 52.26119 | 5.24411 | 22871 ft | 399 kts | 127° |
| 2026-04-27 13:23 | 52.24575 | 5.27484 | 23720 ft | 397 kts | 122° |
| 2026-04-27 13:23 | 52.22959 | 5.31158 | 24341 ft | 400 kts | 120° |
| 2026-04-27 13:23 | 52.21364 | 5.34893 | 24884 ft | 403 kts | 120° |
| 2026-04-27 13:24 | 52.19763 | 5.38641 | 25240 ft | 399 kts | 120° |
| 2026-04-27 13:24 | 52.18232 | 5.42156 | 25598 ft | 364 kts | 118° |
| 2026-04-27 13:24 | 52.16782 | 5.45563 | 25878 ft | 373 kts | 118° |
| 2026-04-27 13:24 | 52.15273 | 5.49127 | 25925 ft | 389 kts | 119° |
| 2026-04-27 13:25 | 52.13680 | 5.52806 | 26000 ft | 405 kts | 121° |
| 2026-04-27 13:25 | 52.12011 | 5.56603 | 26072 ft | 420 kts | 122° |
| 2026-04-27 13:25 | 52.10294 | 5.60477 | 26140 ft | 435 kts | 122° |
| 2026-04-27 13:25 | 52.08486 | 5.64522 | 26228 ft | 449 kts | 124° |
| 2026-04-27 13:26 | 52.06554 | 5.68594 | 26277 ft | 461 kts | 129° |
| 2026-04-27 13:26 | 52.04434 | 5.72518 | 26358 ft | 474 kts | 131° |
| 2026-04-27 13:26 | 52.02196 | 5.76535 | 26426 ft | 487 kts | 132° |
| 2026-04-27 13:26 | 51.99893 | 5.80655 | 26585 ft | 497 kts | 133° |
| 2026-04-27 13:27 | 51.97834 | 5.84375 | 26980 ft | 500 kts | 131° |
| 2026-04-27 13:27 | 51.95537 | 5.88743 | 27550 ft | 501 kts | 130° |
| 2026-04-27 13:27 | 51.93348 | 5.93028 | 28128 ft | 500 kts | 129° |
| 2026-04-27 13:27 | 51.91140 | 5.97372 | 28715 ft | 499 kts | 129° |
| 2026-04-27 13:28 | 51.88932 | 6.01693 | 29274 ft | 497 kts | 129° |
| 2026-04-27 13:28 | 51.86722 | 6.05976 | 29829 ft | 496 kts | 129° |
| 2026-04-27 13:28 | 51.84499 | 6.10234 | 30339 ft | 495 kts | 129° |
| 2026-04-27 13:28 | 51.82269 | 6.14459 | 30785 ft | 493 kts | 129° |
| 2026-04-27 13:29 | 51.80037 | 6.18665 | 31223 ft | 491 kts | 129° |
| 2026-04-27 13:29 | 51.77824 | 6.22832 | 31673 ft | 488 kts | 129° |
| 2026-04-27 13:29 | 51.75622 | 6.26984 | 32131 ft | 484 kts | 129° |
| 2026-04-27 13:29 | 51.73439 | 6.31098 | 32593 ft | 480 kts | 128° |
| 2026-04-27 13:30 | 51.71277 | 6.35159 | 33060 ft | 475 kts | 128° |
| 2026-04-27 13:30 | 51.69153 | 6.39124 | 33541 ft | 470 kts | 128° |
| 2026-04-27 13:30 | 51.67028 | 6.43070 | 34029 ft | 464 kts | 128° |
| 2026-04-27 13:30 | 51.64922 | 6.46962 | 34491 ft | 457 kts | 128° |
| 2026-04-27 13:31 | 51.62847 | 6.50780 | 34887 ft | 450 kts | 127° |
| 2026-04-27 13:31 | 51.60805 | 6.54547 | 35186 ft | 446 kts | 126° |
| 2026-04-27 13:31 | 51.56707 | 6.62097 | 35244 ft | 451 kts | 127° |
| 2026-04-27 13:32 | 51.52501 | 6.69681 | 35244 ft | 458 kts | 128° |
| 2026-04-27 13:32 | 51.48231 | 6.77275 | 35241 ft | 465 kts | 128° |
| 2026-04-27 13:33 | 51.43854 | 6.85024 | 35240 ft | 472 kts | 128° |
| 2026-04-27 13:33 | 51.39758 | 6.93377 | 35159 ft | 485 kts | 121° |
| 2026-04-27 13:34 | 51.35903 | 7.02237 | 35215 ft | 491 kts | 121° |
| 2026-04-27 13:34 | 51.32173 | 7.10904 | 35236 ft | 497 kts | 121° |
| 2026-04-27 13:35 | 51.28245 | 7.20000 | 35231 ft | 502 kts | 121° |
| 2026-04-27 13:35 | 51.24273 | 7.29151 | 35227 ft | 501 kts | 121° |
| 2026-04-27 13:36 | 51.20315 | 7.38282 | 35227 ft | 501 kts | 121° |
| 2026-04-27 13:36 | 51.16352 | 7.47409 | 35221 ft | 500 kts | 121° |
| 2026-04-27 13:37 | 51.12383 | 7.56520 | 35221 ft | 500 kts | 121° |
| 2026-04-27 13:37 | 51.08436 | 7.65548 | 35212 ft | 500 kts | 121° |
| 2026-04-27 13:38 | 51.04453 | 7.74620 | 35219 ft | 500 kts | 121° |
| 2026-04-27 13:38 | 51.00467 | 7.83672 | 35218 ft | 500 kts | 121° |
| 2026-04-27 13:39 | 50.96475 | 7.92710 | 35223 ft | 500 kts | 121° |
| 2026-04-27 13:39 | 50.92223 | 8.01313 | 35225 ft | 499 kts | 131° |
| 2026-04-27 13:40 | 50.87062 | 8.08640 | 35239 ft | 496 kts | 138° |
| 2026-04-27 13:40 | 50.81717 | 8.15459 | 35215 ft | 492 kts | 138° |
| 2026-04-27 13:41 | 50.76421 | 8.22322 | 35212 ft | 492 kts | 137° |
| 2026-04-27 13:41 | 50.71204 | 8.29227 | 35212 ft | 493 kts | 137° |
| 2026-04-27 13:42 | 50.66063 | 8.36068 | 35214 ft | 493 kts | 137° |
| 2026-04-27 13:42 | 50.60819 | 8.43029 | 35218 ft | 493 kts | 137° |
| 2026-04-27 13:43 | 50.55638 | 8.49878 | 35202 ft | 494 kts | 137° |
| 2026-04-27 13:43 | 50.50322 | 8.56879 | 35217 ft | 494 kts | 137° |
| 2026-04-27 13:44 | 50.45364 | 8.63389 | 35212 ft | 494 kts | 137° |
| 2026-04-27 13:44 | 50.40163 | 8.70400 | 35208 ft | 494 kts | 136° |
| 2026-04-27 13:45 | 50.35530 | 8.76751 | 35207 ft | 494 kts | 136° |
| 2026-04-27 13:45 | 50.30358 | 8.83898 | 35225 ft | 494 kts | 131° |
| 2026-04-27 13:46 | 50.28370 | 8.88191 | 35264 ft | 486 kts | 110° |
| 2026-04-27 13:46 | 50.27187 | 8.93055 | 35110 ft | 488 kts | 103° |
| 2026-04-27 13:46 | 50.25054 | 9.03051 | 35204 ft | 492 kts | 102° |
| 2026-04-27 13:47 | 50.22924 | 9.13266 | 35199 ft | 497 kts | 102° |
| 2026-04-27 13:47 | 50.20690 | 9.23557 | 35204 ft | 503 kts | 103° |
| 2026-04-27 13:48 | 50.19489 | 9.34115 | 35197 ft | 490 kts | 78° |
| 2026-04-27 13:48 | 50.19608 | 9.39475 | 35057 ft | 496 kts | 81° |
| 2026-04-27 13:48 | 50.19668 | 9.44780 | 35181 ft | 496 kts | 81° |
| 2026-04-27 13:49 | 50.19785 | 9.55607 | 35201 ft | 502 kts | 81° |
| 2026-04-27 13:49 | 50.19889 | 9.66548 | 35209 ft | 507 kts | 82° |
| 2026-04-27 13:50 | 50.19981 | 9.77574 | 35205 ft | 508 kts | 82° |
| 2026-04-27 13:50 | 50.20071 | 9.88592 | 35209 ft | 507 kts | 82° |
| 2026-04-27 13:51 | 50.20122 | 9.99532 | 35175 ft | 509 kts | 86° |
| 2026-04-27 13:51 | 50.18968 | 10.10439 | 35212 ft | 513 kts | 101° |
| 2026-04-27 13:52 | 50.16250 | 10.20568 | 34652 ft | 496 kts | 114° |
| 2026-04-27 13:52 | 50.14415 | 10.25064 | 33844 ft | 488 kts | 122° |
| 2026-04-27 13:52 | 50.12360 | 10.28926 | 33117 ft | 477 kts | 130° |
| 2026-04-27 13:53 | 50.08698 | 10.36925 | 32423 ft | 450 kts | 99° |
| 2026-04-27 13:53 | 50.07831 | 10.41600 | 31316 ft | 452 kts | 102° |
| 2026-04-27 13:53 | 50.06595 | 10.46152 | 30124 ft | 457 kts | 112° |
| 2026-04-27 13:54 | 50.04955 | 10.50299 | 29106 ft | 441 kts | 122° |
| 2026-04-27 13:54 | 50.03010 | 10.53840 | 28145 ft | 423 kts | 130° |
| 2026-04-27 13:54 | 50.00926 | 10.56958 | 27222 ft | 409 kts | 130° |
| 2026-04-27 13:54 | 49.99015 | 10.59972 | 26141 ft | 401 kts | 130° |
| 2026-04-27 13:55 | 49.96889 | 10.62668 | 24908 ft | 398 kts | 141° |
| 2026-04-27 13:55 | 49.94546 | 10.64831 | 23935 ft | 387 kts | 149° |
| 2026-04-27 13:55 | 49.92104 | 10.66443 | 22789 ft | 377 kts | 158° |
| 2026-04-27 13:55 | 49.89635 | 10.67588 | 21850 ft | 365 kts | 160° |
| 2026-04-27 13:56 | 49.87227 | 10.68673 | 20828 ft | 357 kts | 159° |
| 2026-04-27 13:56 | 49.84874 | 10.69793 | 19791 ft | 351 kts | 158° |
| 2026-04-27 13:56 | 49.82562 | 10.70919 | 18777 ft | 345 kts | 160° |
| 2026-04-27 13:56 | 49.80244 | 10.71706 | 17658 ft | 337 kts | 168° |
| 2026-04-27 13:57 | 49.77982 | 10.72142 | 16674 ft | 328 kts | 169° |
| 2026-04-27 13:57 | 49.75915 | 10.72486 | 15721 ft | 322 kts | 169° |
| 2026-04-27 13:57 | 49.73682 | 10.72844 | 14894 ft | 323 kts | 169° |
| 2026-04-27 13:57 | 49.71446 | 10.73213 | 14399 ft | 322 kts | 168° |
| 2026-04-27 13:58 | 49.69233 | 10.73595 | 13958 ft | 318 kts | 167° |
| 2026-04-27 13:58 | 49.67099 | 10.74351 | 13517 ft | 312 kts | 152° |
| 2026-04-27 13:58 | 49.65258 | 10.76019 | 13057 ft | 305 kts | 131° |
| 2026-04-27 13:58 | 49.64188 | 10.77853 | 12708 ft | 300 kts | 115° |
| 2026-04-27 13:59 | 49.63325 | 10.80711 | 12249 ft | 297 kts | 95° |
| 2026-04-27 13:59 | 49.62946 | 10.83858 | 11758 ft | 302 kts | 88° |
| 2026-04-27 13:59 | 49.62684 | 10.87093 | 11306 ft | 306 kts | 88° |
| 2026-04-27 13:59 | 49.62407 | 10.90356 | 10852 ft | 306 kts | 89° |
| 2026-04-27 14:00 | 49.62113 | 10.93591 | 10402 ft | 303 kts | 89° |
| 2026-04-27 14:00 | 49.61812 | 10.96786 | 9977 ft | 300 kts | 89° |
| 2026-04-27 14:00 | 49.61610 | 10.98891 | 9658 ft | 298 kts | 90° |
| 2026-04-27 14:00 | 49.61222 | 11.02903 | 9056 ft | 295 kts | 90° |
| 2026-04-27 14:01 | 49.60916 | 11.06016 | 8733 ft | 293 kts | 90° |
| 2026-04-27 14:01 | 49.60614 | 11.09106 | 8474 ft | 291 kts | 90° |
| 2026-04-27 14:01 | 49.60318 | 11.12137 | 8224 ft | 289 kts | 90° |
| 2026-04-27 14:01 | 49.60019 | 11.15196 | 7975 ft | 288 kts | 90° |
| 2026-04-27 14:02 | 49.59721 | 11.18245 | 7722 ft | 287 kts | 90° |
| 2026-04-27 14:02 | 49.59421 | 11.21276 | 7479 ft | 286 kts | 90° |
| 2026-04-27 14:02 | 49.59121 | 11.24291 | 7229 ft | 284 kts | 90° |
| 2026-04-27 14:02 | 49.58821 | 11.27294 | 6997 ft | 283 kts | 90° |
| 2026-04-27 14:03 | 49.58525 | 11.30274 | 6753 ft | 281 kts | 90° |
| 2026-04-27 14:03 | 49.58227 | 11.33232 | 6497 ft | 274 kts | 90° |
| 2026-04-27 14:03 | 49.57940 | 11.36047 | 6246 ft | 259 kts | 89° |
| 2026-04-27 14:03 | 49.57678 | 11.38735 | 5995 ft | 256 kts | 88° |
| 2026-04-27 14:04 | 49.57416 | 11.41448 | 5740 ft | 256 kts | 88° |
| 2026-04-27 14:04 | 49.57152 | 11.44149 | 5484 ft | 255 kts | 89° |
| 2026-04-27 14:04 | 49.56885 | 11.46843 | 5230 ft | 254 kts | 88° |
| 2026-04-27 14:04 | 49.56615 | 11.49523 | 4982 ft | 253 kts | 89° |
| 2026-04-27 14:05 | 49.56345 | 11.52190 | 4722 ft | 252 kts | 89° |
| 2026-04-27 14:05 | 49.56075 | 11.54844 | 4467 ft | 251 kts | 89° |
| 2026-04-27 14:05 | 49.55800 | 11.57482 | 4273 ft | 249 kts | 101° |
| 2026-04-27 14:05 | 49.55225 | 11.60155 | 4394 ft | 281 kts | 116° |
| 2026-04-27 14:06 | 49.54109 | 11.62539 | 4429 ft | 266 kts | 136° |
| 2026-04-27 14:06 | 49.52609 | 11.64015 | 4359 ft | 248 kts | 158° |
| 2026-04-27 14:06 | 49.50990 | 11.64499 | 4286 ft | 229 kts | 180° |
| 2026-04-27 14:06 | 49.49464 | 11.64268 | 4198 ft | 214 kts | 189° |
| 2026-04-27 14:07 | 49.48015 | 11.63827 | 4089 ft | 212 kts | 196° |
| 2026-04-27 14:07 | 49.47104 | 11.63287 | 4028 ft | 212 kts | 207° |
| 2026-04-27 14:07 | 49.45938 | 11.61937 | 4003 ft | 211 kts | 229° |
| 2026-04-27 14:07 | 49.45289 | 11.59954 | 4004 ft | 209 kts | 256° |
| 2026-04-27 14:08 | 49.45114 | 11.57815 | 4016 ft | 209 kts | 270° |
| 2026-04-27 14:08 | 49.45233 | 11.54875 | 4013 ft | 207 kts | 259° |
| 2026-04-27 14:08 | 49.45280 | 11.53375 | 4035 ft | 208 kts | 256° |
| 2026-04-27 14:08 | 49.45187 | 11.51154 | 4043 ft | 209 kts | 246° |
| 2026-04-27 14:09 | 49.45039 | 11.48953 | 3954 ft | 213 kts | 268° |
| 2026-04-27 14:09 | 49.45231 | 11.46704 | 3851 ft | 211 kts | 274° |
| 2026-04-27 14:09 | 49.45492 | 11.44507 | 3756 ft | 209 kts | 279° |
| 2026-04-27 14:09 | 49.45823 | 11.42340 | 3744 ft | 209 kts | 284° |
| 2026-04-27 14:10 | 49.46242 | 11.40207 | 3783 ft | 209 kts | 291° |
| 2026-04-27 14:10 | 49.46790 | 11.38151 | 3812 ft | 207 kts | 292° |
| 2026-04-27 14:10 | 49.47183 | 11.36031 | 3824 ft | 206 kts | 280° |
| 2026-04-27 14:10 | 49.47369 | 11.33831 | 3833 ft | 208 kts | 276° |
| 2026-04-27 14:11 | 49.47518 | 11.31677 | 3847 ft | 198 kts | 278° |
| 2026-04-27 14:11 | 49.47698 | 11.29727 | 3806 ft | 173 kts | 280° |
| 2026-04-27 14:11 | 49.47875 | 11.27992 | 3581 ft | 157 kts | 275° |
| 2026-04-27 14:11 | 49.48015 | 11.26403 | 3318 ft | 143 kts | 277° |
| 2026-04-27 14:12 | 49.48167 | 11.24956 | 3118 ft | 133 kts | 276° |
| 2026-04-27 14:12 | 49.48305 | 11.23590 | 2921 ft | 127 kts | 280° |
| 2026-04-27 14:12 | 49.48437 | 11.22255 | 2769 ft | 127 kts | 279° |
| 2026-04-27 14:12 | 49.48575 | 11.20916 | 2588 ft | 126 kts | 278° |
| 2026-04-27 14:13 | 49.48702 | 11.19597 | 2404 ft | 126 kts | 275° |
| 2026-04-27 14:13 | 49.48830 | 11.18246 | 2245 ft | 126 kts | 278° |
| 2026-04-27 14:13 | 49.48967 | 11.16935 | 2076 ft | 126 kts | 280° |
| 2026-04-27 14:13 | 49.49101 | 11.15610 | 1893 ft | 124 kts | 280° |
| 2026-04-27 14:14 | 49.49227 | 11.14310 | 1726 ft | 122 kts | 279° |
| 2026-04-27 14:14 | 49.49346 | 11.13021 | 1585 ft | 122 kts | 270° |
| 2026-04-27 14:14 | 49.49471 | 11.11732 | 1382 ft | 121 kts | 278° |
| 2026-04-27 14:14 | 49.49611 | 11.10448 | 1223 ft | 123 kts | 278° |
| 2026-04-27 14:15 | 49.49730 | 11.09195 | 1050 ft | 114 kts | 283° |
| 2026-04-27 14:15 | 49.49815 | 11.08300 | 1037 ft | 73 kts | 281° |
| 2026-04-27 14:15 | 49.49870 | 11.07793 | 1031 ft | 32 kts | 281° |
| 2026-04-27 14:16 | 49.49875 | 11.07664 | 1026 ft | 11 kts | 232° |
| 2026-04-27 14:16 | 49.49861 | 11.07648 | 1028 ft | 3 kts | 208° |
| 2026-04-27 14:16 | 49.49835 | 11.07647 | 1027 ft | 5 kts | 166° |
| 2026-04-27 14:17 | 49.49794 | 11.07674 | 1028 ft | 9 kts | 155° |
| 2026-04-27 14:17 | 49.49740 | 11.07716 | 1026 ft | 0 kts | 154° |
| 2026-04-27 14:17 | 49.49738 | 11.07718 | 1027 ft | 1 kts | 154° |
| 2026-04-27 14:17 | 49.49723 | 11.07729 | 1029 ft | 3 kts | 154° |
| 2026-04-27 14:18 | 49.49705 | 11.07743 | 1027 ft | 0 kts | 154° |
| 2026-04-27 14:18 | 49.49660 | 11.07770 | 1027 ft | 9 kts | 169° |
| 2026-04-27 14:18 | 49.49593 | 11.07746 | 1030 ft | 10 kts | 201° |
| 2026-04-27 14:18 | 49.49537 | 11.07727 | 1029 ft | 0 kts | 188° |
| 2026-04-27 14:19 | 49.49528 | 11.07725 | 1025 ft | 1 kts | 189° |
| 2026-04-27 14:19 | 49.49524 | 11.07724 | 1025 ft | 0 kts | 189° |